EZY65J ELLX-EGKK
Flight info
| Callsign | EZY65J |
|---|---|
| Flight time | 1h 6m |
| Altitude | 33000 |
| Route | RAPOR UN857 GIMER DCT DIDOR/N0445F320 UT10 IRBAL UT421 KUNAV |
| Aircraft | A20N/M-SDE2E3FGHIRWXY/LB1 |
Departure
| Time | 2026-04-29 15:48 |
|---|---|
| Airport | Luxembourg-Findel International Airport (ELLX) |
Arrival
| Time | 2026-04-29 16:55 |
|---|---|
| Airport | London Gatwick Airport (EGKK) |
| Time | Latitude | Longitude | Altitude | Speed | Heading |
|---|---|---|---|---|---|
| 2026-04-29 15:24 | 49.63197 | 6.21758 | 1196 ft | 0 kts | 45° |
| 2026-04-29 15:42 | 49.63203 | 6.21790 | 1196 ft | 6 kts | 70° |
| 2026-04-29 15:43 | 49.63206 | 6.21803 | 1196 ft | 0 kts | 70° |
| 2026-04-29 15:43 | 49.63210 | 6.21820 | 1196 ft | 6 kts | 70° |
| 2026-04-29 15:43 | 49.63196 | 6.21878 | 1196 ft | 7 kts | 139° |
| 2026-04-29 15:43 | 49.63155 | 6.21872 | 1197 ft | 6 kts | 227° |
| 2026-04-29 15:44 | 49.63105 | 6.21743 | 1197 ft | 24 kts | 244° |
| 2026-04-29 15:44 | 49.63022 | 6.21473 | 1196 ft | 29 kts | 244° |
| 2026-04-29 15:44 | 49.62929 | 6.21171 | 1196 ft | 33 kts | 242° |
| 2026-04-29 15:44 | 49.62835 | 6.20862 | 1196 ft | 27 kts | 244° |
| 2026-04-29 15:45 | 49.62744 | 6.20676 | 1196 ft | 23 kts | 217° |
| 2026-04-29 15:45 | 49.62617 | 6.20498 | 1197 ft | 28 kts | 228° |
| 2026-04-29 15:45 | 49.62485 | 6.20240 | 1198 ft | 30 kts | 239° |
| 2026-04-29 15:45 | 49.62392 | 6.19996 | 1198 ft | 27 kts | 240° |
| 2026-04-29 15:46 | 49.62287 | 6.19715 | 1197 ft | 33 kts | 240° |
| 2026-04-29 15:46 | 49.62164 | 6.19377 | 1196 ft | 39 kts | 240° |
| 2026-04-29 15:46 | 49.62053 | 6.19084 | 1196 ft | 28 kts | 240° |
| 2026-04-29 15:46 | 49.61961 | 6.18843 | 1196 ft | 26 kts | 235° |
| 2026-04-29 15:47 | 49.61818 | 6.18721 | 1199 ft | 19 kts | 154° |
| 2026-04-29 15:47 | 49.61792 | 6.18860 | 1203 ft | 0 kts | 46° |
| 2026-04-29 15:47 | 49.61873 | 6.19075 | 1203 ft | 63 kts | 60° |
| 2026-04-29 15:47 | 49.62212 | 6.19995 | 1212 ft | 132 kts | 60° |
| 2026-04-29 15:48 | 49.62723 | 6.21408 | 1552 ft | 163 kts | 62° |
| 2026-04-29 15:48 | 49.63297 | 6.23019 | 2269 ft | 175 kts | 63° |
| 2026-04-29 15:48 | 49.63899 | 6.24753 | 2904 ft | 191 kts | 64° |
| 2026-04-29 15:48 | 49.64543 | 6.26648 | 3567 ft | 207 kts | 64° |
| 2026-04-29 15:49 | 49.65234 | 6.28676 | 4314 ft | 218 kts | 63° |
| 2026-04-29 15:49 | 49.66000 | 6.30673 | 5454 ft | 209 kts | 60° |
| 2026-04-29 15:49 | 49.66761 | 6.32506 | 6699 ft | 196 kts | 59° |
| 2026-04-29 15:49 | 49.67731 | 6.33861 | 7727 ft | 194 kts | 30° |
| 2026-04-29 15:50 | 49.69067 | 6.34462 | 8405 ft | 210 kts | 11° |
| 2026-04-29 15:50 | 49.70602 | 6.34322 | 8917 ft | 236 kts | 346° |
| 2026-04-29 15:50 | 49.72079 | 6.32938 | 9534 ft | 266 kts | 317° |
| 2026-04-29 15:50 | 49.73098 | 6.30382 | 10057 ft | 297 kts | 291° |
| 2026-04-29 15:51 | 49.73333 | 6.27107 | 10691 ft | 317 kts | 265° |
| 2026-04-29 15:51 | 49.72704 | 6.23762 | 11293 ft | 334 kts | 251° |
| 2026-04-29 15:51 | 49.72195 | 6.20172 | 11883 ft | 349 kts | 263° |
| 2026-04-29 15:51 | 49.71667 | 6.16477 | 12482 ft | 367 kts | 250° |
| 2026-04-29 15:52 | 49.70574 | 6.12845 | 13273 ft | 374 kts | 240° |
| 2026-04-29 15:52 | 49.69350 | 6.09265 | 14205 ft | 381 kts | 245° |
| 2026-04-29 15:52 | 49.68353 | 6.05373 | 14655 ft | 399 kts | 253° |
| 2026-04-29 15:52 | 49.67615 | 6.01105 | 14882 ft | 422 kts | 259° |
| 2026-04-29 15:53 | 49.67044 | 5.96531 | 14992 ft | 446 kts | 261° |
| 2026-04-29 15:53 | 49.66540 | 5.91720 | 14999 ft | 471 kts | 262° |
| 2026-04-29 15:53 | 49.66052 | 5.86804 | 14914 ft | 452 kts | 263° |
| 2026-04-29 15:53 | 49.65590 | 5.82028 | 14078 ft | 443 kts | 262° |
| 2026-04-29 15:54 | 49.65124 | 5.77429 | 13955 ft | 422 kts | 262° |
| 2026-04-29 15:54 | 49.64670 | 5.73067 | 14195 ft | 400 kts | 262° |
| 2026-04-29 15:54 | 49.64237 | 5.68949 | 14520 ft | 385 kts | 262° |
| 2026-04-29 15:54 | 49.63809 | 5.64892 | 14918 ft | 385 kts | 262° |
| 2026-04-29 15:55 | 49.63375 | 5.60789 | 15693 ft | 386 kts | 262° |
| 2026-04-29 15:55 | 49.62943 | 5.56709 | 16523 ft | 385 kts | 262° |
| 2026-04-29 15:55 | 49.62504 | 5.52588 | 17170 ft | 391 kts | 262° |
| 2026-04-29 15:55 | 49.62059 | 5.48415 | 17822 ft | 396 kts | 263° |
| 2026-04-29 15:56 | 49.61613 | 5.44250 | 18530 ft | 399 kts | 262° |
| 2026-04-29 15:56 | 49.61157 | 5.39999 | 19091 ft | 403 kts | 262° |
| 2026-04-29 15:56 | 49.60693 | 5.35692 | 19610 ft | 409 kts | 262° |
| 2026-04-29 15:56 | 49.60223 | 5.31348 | 20220 ft | 411 kts | 262° |
| 2026-04-29 15:57 | 49.59748 | 5.26976 | 20808 ft | 415 kts | 262° |
| 2026-04-29 15:57 | 49.59266 | 5.22573 | 21390 ft | 418 kts | 261° |
| 2026-04-29 15:57 | 49.58584 | 5.18196 | 21942 ft | 423 kts | 256° |
| 2026-04-29 15:57 | 49.57807 | 5.13852 | 22493 ft | 427 kts | 256° |
| 2026-04-29 15:58 | 49.57023 | 5.09418 | 23083 ft | 430 kts | 256° |
| 2026-04-29 15:58 | 49.56232 | 5.04946 | 23641 ft | 433 kts | 256° |
| 2026-04-29 15:58 | 49.55436 | 5.00457 | 24121 ft | 436 kts | 256° |
| 2026-04-29 15:58 | 49.54629 | 4.95923 | 24580 ft | 439 kts | 255° |
| 2026-04-29 15:59 | 49.53816 | 4.91373 | 25063 ft | 441 kts | 255° |
| 2026-04-29 15:59 | 49.53010 | 4.86868 | 25512 ft | 444 kts | 255° |
| 2026-04-29 15:59 | 49.52183 | 4.82260 | 25919 ft | 448 kts | 255° |
| 2026-04-29 15:59 | 49.51349 | 4.77627 | 26375 ft | 450 kts | 255° |
| 2026-04-29 16:00 | 49.50510 | 4.72977 | 26835 ft | 452 kts | 255° |
| 2026-04-29 16:00 | 49.49663 | 4.68295 | 27204 ft | 456 kts | 255° |
| 2026-04-29 16:00 | 49.48808 | 4.63579 | 27614 ft | 458 kts | 255° |
| 2026-04-29 16:00 | 49.47957 | 4.58900 | 28046 ft | 460 kts | 255° |
| 2026-04-29 16:01 | 49.47091 | 4.54157 | 28397 ft | 463 kts | 254° |
| 2026-04-29 16:01 | 49.46218 | 4.49382 | 28766 ft | 466 kts | 254° |
| 2026-04-29 16:01 | 49.45337 | 4.44573 | 29150 ft | 467 kts | 254° |
| 2026-04-29 16:01 | 49.44452 | 4.39753 | 29515 ft | 469 kts | 254° |
| 2026-04-29 16:02 | 49.43557 | 4.34896 | 29764 ft | 474 kts | 254° |
| 2026-04-29 16:02 | 49.42658 | 4.30029 | 30187 ft | 473 kts | 254° |
| 2026-04-29 16:02 | 49.41757 | 4.25168 | 30602 ft | 473 kts | 254° |
| 2026-04-29 16:02 | 49.40851 | 4.20290 | 30863 ft | 477 kts | 254° |
| 2026-04-29 16:03 | 49.39934 | 4.15379 | 31115 ft | 479 kts | 254° |
| 2026-04-29 16:03 | 49.39026 | 4.10535 | 31638 ft | 475 kts | 255° |
| 2026-04-29 16:03 | 49.38108 | 4.05653 | 32016 ft | 475 kts | 255° |
| 2026-04-29 16:03 | 49.37189 | 4.00772 | 32396 ft | 474 kts | 255° |
| 2026-04-29 16:04 | 49.36462 | 3.95870 | 32902 ft | 468 kts | 263° |
| 2026-04-29 16:04 | 49.36060 | 3.90941 | 33089 ft | 463 kts | 266° |
| 2026-04-29 16:04 | 49.35713 | 3.86033 | 33125 ft | 461 kts | 266° |
| 2026-04-29 16:05 | 49.35015 | 3.76358 | 33129 ft | 459 kts | 265° |
| 2026-04-29 16:05 | 49.34409 | 3.68170 | 33119 ft | 461 kts | 266° |
| 2026-04-29 16:06 | 49.33683 | 3.58469 | 33126 ft | 460 kts | 265° |
| 2026-04-29 16:06 | 49.32946 | 3.48764 | 33122 ft | 451 kts | 265° |
| 2026-04-29 16:07 | 49.32210 | 3.39175 | 33118 ft | 454 kts | 266° |
| 2026-04-29 16:07 | 49.32109 | 3.34358 | 33116 ft | 450 kts | 277° |
| 2026-04-29 16:07 | 49.32630 | 3.29715 | 33117 ft | 446 kts | 289° |
| 2026-04-29 16:08 | 49.35438 | 3.21308 | 33114 ft | 444 kts | 310° |
| 2026-04-29 16:08 | 49.39552 | 3.14271 | 33122 ft | 441 kts | 314° |
| 2026-04-29 16:09 | 49.43594 | 3.07385 | 33120 ft | 428 kts | 313° |
| 2026-04-29 16:09 | 49.47605 | 3.00524 | 33118 ft | 436 kts | 313° |
| 2026-04-29 16:10 | 49.51568 | 2.93362 | 33123 ft | 446 kts | 306° |
| 2026-04-29 16:10 | 49.54659 | 2.85010 | 33118 ft | 449 kts | 302° |
| 2026-04-29 16:11 | 49.57660 | 2.76646 | 33122 ft | 449 kts | 301° |
| 2026-04-29 16:11 | 49.60692 | 2.68227 | 33116 ft | 448 kts | 301° |
| 2026-04-29 16:12 | 49.63700 | 2.59886 | 33125 ft | 446 kts | 301° |
| 2026-04-29 16:12 | 49.66717 | 2.51487 | 33120 ft | 446 kts | 301° |
| 2026-04-29 16:13 | 49.69716 | 2.43105 | 33122 ft | 444 kts | 302° |
| 2026-04-29 16:13 | 49.72689 | 2.34770 | 33115 ft | 445 kts | 302° |
| 2026-04-29 16:14 | 49.75730 | 2.26232 | 33122 ft | 455 kts | 300° |
| 2026-04-29 16:14 | 49.76930 | 2.21726 | 33125 ft | 451 kts | 289° |
| 2026-04-29 16:14 | 49.77497 | 2.17013 | 33131 ft | 452 kts | 279° |
| 2026-04-29 16:15 | 49.78642 | 2.07452 | 33128 ft | 449 kts | 295° |
| 2026-04-29 16:15 | 49.80074 | 2.03186 | 33134 ft | 445 kts | 307° |
| 2026-04-29 16:15 | 49.82025 | 1.99502 | 33135 ft | 442 kts | 316° |
| 2026-04-29 16:16 | 49.86522 | 1.93097 | 33137 ft | 436 kts | 321° |
| 2026-04-29 16:16 | 49.91138 | 1.87024 | 33137 ft | 435 kts | 325° |
| 2026-04-29 16:17 | 49.95933 | 1.81206 | 33127 ft | 439 kts | 324° |
| 2026-04-29 16:17 | 50.00721 | 1.75297 | 32834 ft | 440 kts | 323° |
| 2026-04-29 16:17 | 50.03138 | 1.72309 | 32570 ft | 445 kts | 324° |
| 2026-04-29 16:18 | 50.05551 | 1.69316 | 32181 ft | 444 kts | 324° |
| 2026-04-29 16:18 | 50.07982 | 1.66300 | 31303 ft | 450 kts | 323° |
| 2026-04-29 16:18 | 50.10380 | 1.63123 | 30514 ft | 453 kts | 321° |
| 2026-04-29 16:18 | 50.12736 | 1.59881 | 30008 ft | 450 kts | 320° |
| 2026-04-29 16:19 | 50.15080 | 1.56643 | 29431 ft | 448 kts | 320° |
| 2026-04-29 16:19 | 50.17378 | 1.53480 | 28846 ft | 444 kts | 321° |
| 2026-04-29 16:19 | 50.19691 | 1.50314 | 28279 ft | 441 kts | 320° |
| 2026-04-29 16:19 | 50.22003 | 1.47154 | 27706 ft | 440 kts | 321° |
| 2026-04-29 16:20 | 50.24316 | 1.43997 | 27249 ft | 442 kts | 320° |
| 2026-04-29 16:20 | 50.26647 | 1.40810 | 26498 ft | 447 kts | 320° |
| 2026-04-29 16:20 | 50.28969 | 1.37635 | 26056 ft | 440 kts | 320° |
| 2026-04-29 16:20 | 50.31261 | 1.34497 | 25501 ft | 436 kts | 320° |
| 2026-04-29 16:21 | 50.33543 | 1.31365 | 24945 ft | 435 kts | 320° |
| 2026-04-29 16:21 | 50.35813 | 1.28246 | 24450 ft | 434 kts | 319° |
| 2026-04-29 16:21 | 50.38080 | 1.25126 | 23838 ft | 435 kts | 319° |
| 2026-04-29 16:21 | 50.40348 | 1.22000 | 23146 ft | 433 kts | 319° |
| 2026-04-29 16:22 | 50.42592 | 1.18901 | 22733 ft | 425 kts | 320° |
| 2026-04-29 16:22 | 50.44809 | 1.15836 | 22082 ft | 424 kts | 320° |
| 2026-04-29 16:22 | 50.47019 | 1.12779 | 21498 ft | 422 kts | 320° |
| 2026-04-29 16:22 | 50.49212 | 1.09739 | 20962 ft | 418 kts | 320° |
| 2026-04-29 16:23 | 50.51345 | 1.06751 | 20443 ft | 414 kts | 318° |
| 2026-04-29 16:23 | 50.53332 | 1.03464 | 19896 ft | 413 kts | 314° |
| 2026-04-29 16:23 | 50.55280 | 1.00165 | 19352 ft | 410 kts | 315° |
| 2026-04-29 16:23 | 50.57224 | 0.96895 | 18786 ft | 408 kts | 315° |
| 2026-04-29 16:24 | 50.59154 | 0.93649 | 18306 ft | 403 kts | 315° |
| 2026-04-29 16:24 | 50.61050 | 0.90457 | 17729 ft | 401 kts | 315° |
| 2026-04-29 16:24 | 50.62973 | 0.87206 | 17203 ft | 398 kts | 315° |
| 2026-04-29 16:24 | 50.64847 | 0.84035 | 16730 ft | 392 kts | 315° |
| 2026-04-29 16:25 | 50.66676 | 0.80933 | 16315 ft | 388 kts | 314° |
| 2026-04-29 16:25 | 50.68443 | 0.77682 | 16193 ft | 394 kts | 309° |
| 2026-04-29 16:25 | 50.70167 | 0.74294 | 16180 ft | 394 kts | 310° |
| 2026-04-29 16:25 | 50.71885 | 0.70932 | 16179 ft | 394 kts | 310° |
| 2026-04-29 16:26 | 50.73616 | 0.67547 | 16180 ft | 400 kts | 310° |
| 2026-04-29 16:26 | 50.75373 | 0.64106 | 16178 ft | 399 kts | 310° |
| 2026-04-29 16:26 | 50.77092 | 0.60730 | 16179 ft | 402 kts | 310° |
| 2026-04-29 16:26 | 50.78837 | 0.57301 | 16193 ft | 397 kts | 310° |
| 2026-04-29 16:27 | 50.80566 | 0.53896 | 16195 ft | 395 kts | 310° |
| 2026-04-29 16:27 | 50.82284 | 0.50509 | 16196 ft | 397 kts | 310° |
| 2026-04-29 16:27 | 50.84023 | 0.47076 | 16210 ft | 397 kts | 310° |
| 2026-04-29 16:27 | 50.85750 | 0.43660 | 16224 ft | 400 kts | 310° |
| 2026-04-29 16:28 | 50.87499 | 0.40199 | 16226 ft | 402 kts | 310° |
| 2026-04-29 16:28 | 50.89244 | 0.36742 | 15906 ft | 403 kts | 309° |
| 2026-04-29 16:28 | 50.90984 | 0.33292 | 15313 ft | 406 kts | 309° |
| 2026-04-29 16:28 | 50.92758 | 0.29766 | 14509 ft | 412 kts | 309° |
| 2026-04-29 16:29 | 50.94557 | 0.26186 | 13698 ft | 414 kts | 309° |
| 2026-04-29 16:29 | 50.96357 | 0.22570 | 12692 ft | 419 kts | 309° |
| 2026-04-29 16:29 | 50.98177 | 0.18871 | 11563 ft | 428 kts | 309° |
| 2026-04-29 16:29 | 50.99984 | 0.15116 | 10893 ft | 423 kts | 304° |
| 2026-04-29 16:30 | 51.01304 | 0.11058 | 10163 ft | 418 kts | 289° |
| 2026-04-29 16:30 | 51.01891 | 0.06735 | 9775 ft | 367 kts | 274° |
| 2026-04-29 16:30 | 51.01680 | 0.03148 | 9380 ft | 291 kts | 249° |
| 2026-04-29 16:30 | 51.00743 | 0.00658 | 9194 ft | 247 kts | 214° |
| 2026-04-29 16:31 | 50.99359 | -0.00594 | 9175 ft | 227 kts | 186° |
| 2026-04-29 16:31 | 50.97789 | -0.00799 | 9880 ft | 227 kts | 178° |
| 2026-04-29 16:31 | 50.96131 | -0.01134 | 10050 ft | 255 kts | 193° |
| 2026-04-29 16:31 | 50.94525 | -0.02466 | 9983 ft | 260 kts | 204° |
| 2026-04-29 16:32 | 50.93000 | -0.03924 | 9785 ft | 253 kts | 204° |
| 2026-04-29 16:32 | 50.91495 | -0.05357 | 9267 ft | 252 kts | 203° |
| 2026-04-29 16:32 | 50.89984 | -0.06790 | 8683 ft | 253 kts | 203° |
| 2026-04-29 16:32 | 50.88462 | -0.08264 | 7987 ft | 260 kts | 211° |
| 2026-04-29 16:33 | 50.86860 | -0.13344 | 6989 ft | 274 kts | 270° |
| 2026-04-29 16:33 | 50.87310 | -0.16211 | 6470 ft | 273 kts | 301° |
| 2026-04-29 16:33 | 50.88492 | -0.18475 | 6081 ft | 262 kts | 320° |
| 2026-04-29 16:34 | 50.89811 | -0.20486 | 5971 ft | 264 kts | 320° |
| 2026-04-29 16:34 | 50.91108 | -0.22473 | 5967 ft | 248 kts | 320° |
| 2026-04-29 16:34 | 50.92330 | -0.24343 | 5974 ft | 244 kts | 320° |
| 2026-04-29 16:34 | 50.93555 | -0.26218 | 5962 ft | 244 kts | 320° |
| 2026-04-29 16:35 | 50.94762 | -0.28069 | 5730 ft | 243 kts | 320° |
| 2026-04-29 16:35 | 50.95988 | -0.29950 | 5401 ft | 244 kts | 320° |
| 2026-04-29 16:35 | 50.97208 | -0.31822 | 5127 ft | 241 kts | 320° |
| 2026-04-29 16:35 | 50.98404 | -0.33662 | 4994 ft | 241 kts | 321° |
| 2026-04-29 16:36 | 50.99608 | -0.35510 | 4980 ft | 238 kts | 321° |
| 2026-04-29 16:36 | 51.00766 | -0.37296 | 4906 ft | 227 kts | 321° |
| 2026-04-29 16:36 | 51.01874 | -0.39005 | 4748 ft | 220 kts | 321° |
| 2026-04-29 16:36 | 51.02954 | -0.40671 | 4496 ft | 214 kts | 321° |
| 2026-04-29 16:37 | 51.04036 | -0.42343 | 4104 ft | 217 kts | 321° |
| 2026-04-29 16:37 | 51.05109 | -0.43995 | 3843 ft | 214 kts | 321° |
| 2026-04-29 16:37 | 51.06165 | -0.45623 | 3598 ft | 208 kts | 321° |
| 2026-04-29 16:37 | 51.06837 | -0.46663 | 3535 ft | 200 kts | 321° |
| 2026-04-29 16:38 | 51.08129 | -0.48654 | 3286 ft | 192 kts | 327° |
| 2026-04-29 16:38 | 51.09278 | -0.49409 | 3052 ft | 166 kts | 12° |
| 2026-04-29 16:38 | 51.10241 | -0.48804 | 3041 ft | 149 kts | 50° |
| 2026-04-29 16:38 | 51.11021 | -0.47729 | 3016 ft | 143 kts | 50° |
| 2026-04-29 16:39 | 51.11444 | -0.46402 | 2933 ft | 145 kts | 87° |
| 2026-04-29 16:39 | 51.11475 | -0.44606 | 2857 ft | 182 kts | 89° |
| 2026-04-29 16:39 | 51.11555 | -0.42706 | 2620 ft | 161 kts | 84° |
| 2026-04-29 16:39 | 51.11717 | -0.41036 | 2396 ft | 143 kts | 79° |
| 2026-04-29 16:40 | 51.11930 | -0.39607 | 2287 ft | 122 kts | 78° |
| 2026-04-29 16:40 | 51.12120 | -0.38231 | 2264 ft | 129 kts | 79° |
| 2026-04-29 16:40 | 51.12322 | -0.36850 | 2278 ft | 129 kts | 78° |
| 2026-04-29 16:40 | 51.12536 | -0.35452 | 2291 ft | 130 kts | 78° |
| 2026-04-29 16:41 | 51.12763 | -0.34057 | 2072 ft | 129 kts | 77° |
| 2026-04-29 16:41 | 51.12982 | -0.32689 | 1838 ft | 128 kts | 78° |
| 2026-04-29 16:41 | 51.13107 | -0.31278 | 1795 ft | 129 kts | 81° |
| 2026-04-29 16:41 | 51.13217 | -0.29877 | 1620 ft | 130 kts | 80° |
| 2026-04-29 16:42 | 51.13385 | -0.28479 | 1319 ft | 125 kts | 74° |
| 2026-04-29 16:42 | 51.13669 | -0.27167 | 1093 ft | 127 kts | 73° |
| 2026-04-29 16:42 | 51.13881 | -0.25806 | 940 ft | 121 kts | 77° |
| 2026-04-29 16:42 | 51.14027 | -0.24560 | 678 ft | 111 kts | 75° |
| 2026-04-29 16:43 | 51.14173 | -0.23214 | 1053 ft | 129 kts | 79° |
| 2026-04-29 16:43 | 51.13949 | -0.21869 | 1915 ft | 139 kts | 120° |
| 2026-04-29 16:43 | 51.12990 | -0.21075 | 2418 ft | 174 kts | 159° |
| 2026-04-29 16:43 | 51.11760 | -0.20802 | 2442 ft | 179 kts | 163° |
| 2026-04-29 16:44 | 51.10563 | -0.20560 | 2400 ft | 173 kts | 161° |
| 2026-04-29 16:44 | 51.09368 | -0.20108 | 2429 ft | 175 kts | 150° |
| 2026-04-29 16:44 | 51.08212 | -0.19476 | 2431 ft | 176 kts | 150° |
| 2026-04-29 16:44 | 51.07039 | -0.18831 | 2435 ft | 187 kts | 150° |
| 2026-04-29 16:45 | 51.05760 | -0.18498 | 2418 ft | 190 kts | 179° |
| 2026-04-29 16:45 | 51.04538 | -0.19527 | 2421 ft | 214 kts | 220° |
| 2026-04-29 16:45 | 51.03857 | -0.21630 | 2425 ft | 223 kts | 259° |
| 2026-04-29 16:45 | 51.03905 | -0.24042 | 2425 ft | 218 kts | 291° |
| 2026-04-29 16:46 | 51.04435 | -0.26334 | 2559 ft | 223 kts | 295° |
| 2026-04-29 16:46 | 51.04999 | -0.28646 | 2954 ft | 221 kts | 295° |
| 2026-04-29 16:46 | 51.05550 | -0.30912 | 2984 ft | 222 kts | 294° |
| 2026-04-29 16:46 | 51.06096 | -0.33167 | 3055 ft | 221 kts | 294° |
| 2026-04-29 16:47 | 51.06643 | -0.35439 | 3027 ft | 219 kts | 295° |
| 2026-04-29 16:47 | 51.07181 | -0.37669 | 3029 ft | 216 kts | 294° |
| 2026-04-29 16:47 | 51.07721 | -0.39902 | 3023 ft | 217 kts | 294° |
| 2026-04-29 16:47 | 51.08263 | -0.42151 | 3016 ft | 216 kts | 294° |
| 2026-04-29 16:48 | 51.08801 | -0.44388 | 3022 ft | 218 kts | 294° |
| 2026-04-29 16:48 | 51.09346 | -0.46654 | 3014 ft | 218 kts | 294° |
| 2026-04-29 16:48 | 51.09760 | -0.48102 | 3016 ft | 215 kts | 309° |
| 2026-04-29 16:48 | 51.10852 | -0.49528 | 3018 ft | 198 kts | 349° |
| 2026-04-29 16:49 | 51.12476 | -0.49330 | 3022 ft | 168 kts | 43° |
| 2026-04-29 16:49 | 51.13087 | -0.47927 | 3021 ft | 147 kts | 83° |
| 2026-04-29 16:49 | 51.13005 | -0.46870 | 3030 ft | 145 kts | 109° |
| 2026-04-29 16:49 | 51.12479 | -0.45486 | 3165 ft | 148 kts | 122° |
| 2026-04-29 16:50 | 51.11786 | -0.44290 | 3337 ft | 138 kts | 130° |
| 2026-04-29 16:50 | 51.11430 | -0.43078 | 3150 ft | 115 kts | 89° |
| 2026-04-29 16:50 | 51.11568 | -0.41683 | 3109 ft | 139 kts | 88° |
| 2026-04-29 16:50 | 51.11728 | -0.40213 | 3091 ft | 125 kts | 79° |
| 2026-04-29 16:51 | 51.11996 | -0.38976 | 2882 ft | 112 kts | 76° |
| 2026-04-29 16:51 | 51.12228 | -0.37865 | 2687 ft | 102 kts | 78° |
| 2026-04-29 16:51 | 51.12436 | -0.36665 | 2332 ft | 124 kts | 79° |
| 2026-04-29 16:51 | 51.12617 | -0.35329 | 2126 ft | 124 kts | 80° |
| 2026-04-29 16:52 | 51.12770 | -0.33960 | 1872 ft | 126 kts | 79° |
| 2026-04-29 16:52 | 51.12913 | -0.32564 | 1799 ft | 126 kts | 80° |
| 2026-04-29 16:52 | 51.13100 | -0.31211 | 1674 ft | 124 kts | 74° |
| 2026-04-29 16:52 | 51.13313 | -0.29860 | 1361 ft | 129 kts | 77° |
| 2026-04-29 16:53 | 51.13491 | -0.28496 | 1214 ft | 124 kts | 78° |
| 2026-04-29 16:53 | 51.13678 | -0.27155 | 1096 ft | 123 kts | 75° |
| 2026-04-29 16:53 | 51.13866 | -0.25786 | 917 ft | 130 kts | 77° |
| 2026-04-29 16:53 | 51.14040 | -0.24378 | 685 ft | 128 kts | 74° |
| 2026-04-29 16:54 | 51.14251 | -0.23018 | 516 ft | 126 kts | 76° |
| 2026-04-29 16:54 | 51.14433 | -0.21693 | 355 ft | 124 kts | 77° |
| 2026-04-29 16:54 | 51.14618 | -0.20397 | 216 ft | 113 kts | 77° |
| 2026-04-29 16:54 | 51.14754 | -0.19437 | 205 ft | 50 kts | 77° |
| 2026-04-29 16:55 | 51.14787 | -0.19205 | 212 ft | 14 kts | 77° |
| 2026-04-29 16:55 | 51.14812 | -0.19031 | 204 ft | 20 kts | 77° |
| 2026-04-29 16:55 | 51.14854 | -0.18759 | 207 ft | 30 kts | 75° |
| 2026-04-29 16:55 | 51.14973 | -0.18452 | 209 ft | 34 kts | 52° |
| 2026-04-29 16:56 | 51.15046 | -0.18305 | 213 ft | 0 kts | 51° |
| 2026-04-29 16:57 | 51.15055 | -0.18287 | 225 ft | 6 kts | 51° |
| 2026-04-29 16:57 | 51.15095 | -0.18216 | 205 ft | 14 kts | 37° |
| 2026-04-29 16:58 | 51.15195 | -0.18174 | 212 ft | 13 kts | 42° |
| 2026-04-29 16:58 | 51.15215 | -0.18068 | 206 ft | 0 kts | 74° |